Langdon, ND

4:06 PM CST on February 06, 2016 (GMT -0600)
Langdon

Weather History for KD55 - February, 2013

Change the Weather History Date:

Tuesday, February 19, 2013

  Actual Average (KDVL) Record (KDVL)
Temperature  
Mean Temperature -10 °F -  
Max Temperature -2 °F 20 °F 39 °F (1965)
Min Temperature -18 °F 5 °F -35 °F (1966)
Degree Days  
Heating Degree Days 75    
Moisture  
Dew Point -19 °F    
Average Humidity 70    
Maximum Humidity 84    
Minimum Humidity 59    
Precipitation  
Precipitation 0.00 in - - ()
Sea Level Pressure  
Sea Level Pressure 30.32 in    
Wind  
Wind Speed 17 mph (North)    
Max Wind Speed 24 mph    
Max Gust Speed 26 mph    
Visibility 9 miles    
Events      
Averages and records for this station are not official NWS values.
T = Trace of Precipitation, MM = Missing Value Source: NWS Daily Summary

Daily Weather History Graph

Daily Weather History Graph

Search for Another Location

Airport or City:

Trip Planner

Search our weather history database for the weather conditions in past years. The results will help you decide how hot, cold, wet, or windy it might be!

Date:

Astronomy

Feb. 19, 2013 Rise Set
Actual Time 7:33 AM CST 6:01 PM CST
Civil Twilight 7:01 AM CST 6:33 PM CST
Nautical Twilight 6:25 AM CST 7:10 PM CST
Astronomical Twilight 5:48 AM CST 7:47 PM CST
Moon 12:18 PM CST (2/19) 3:22 AM CST (2/19)
Length of Visible Light 11h 32m
Length of Day
10h 27m
Waxing Gibbous, 67% of the Moon is Illuminated
Feb 19
Waxing Gibbous
Feb 25
Full
Mar 4
Last Quarter
Mar 11
New
Mar 19
First Quarter

Hourly Weather History & Observations

Time (CST) Temp. Windchill Dew Point Humidity Pressure Visibility Wind Dir Wind Speed Gust Speed Precip Events Conditions
12:15 AM -11.2 °F -38.7 °F -18.4 °F 70% 30.17 in 5.0 mi North 24.2 mph - N/A   Haze
12:35 AM -11.2 °F -38.7 °F -18.4 °F 70% 30.17 in 6.0 mi North 24.2 mph - N/A   Haze
12:55 AM -11.2 °F -37.6 °F -18.4 °F 70% 30.18 in 8.0 mi North 21.9 mph - N/A   Clear
1:15 AM -11.2 °F -37.6 °F -18.4 °F 70% 30.19 in 10.0 mi North 21.9 mph - N/A   Clear
1:35 AM -13.0 °F -39.4 °F -18.4 °F 77% 30.19 in 9.0 mi North 20.7 mph 26.5 mph N/A   Clear
1:55 AM -13.0 °F -38.8 °F -20.2 °F 70% 30.20 in 10.0 mi North 19.6 mph - N/A   Clear
2:15 AM -13.0 °F -39.4 °F -20.2 °F 70% 30.20 in 10.0 mi North 20.7 mph 26.5 mph N/A   Clear
2:35 AM -13.0 °F -40.6 °F -20.2 °F 70% 30.21 in 6.0 mi North 23.0 mph - N/A   Haze
2:55 AM -13.0 °F -38.2 °F -20.2 °F 70% 30.22 in 10.0 mi North 18.4 mph - N/A   Partly Cloudy
3:15 AM -13.0 °F -40.6 °F -20.2 °F 70% 30.22 in 9.0 mi North 23.0 mph - N/A   Mostly Cloudy
3:35 AM -13.0 °F -37.5 °F -20.2 °F 70% 30.23 in 10.0 mi North 17.3 mph - N/A   Overcast
3:55 AM -14.8 °F -40.5 °F -20.2 °F 77% 30.24 in 10.0 mi North 18.4 mph - N/A   Overcast
4:15 AM -14.8 °F -41.8 °F -20.2 °F 77% 30.23 in 10.0 mi North 20.7 mph - N/A   Overcast
4:35 AM -14.8 °F -40.5 °F -22.0 °F 70% 30.23 in 10.0 mi North 18.4 mph - N/A   Overcast
4:55 AM -16.6 °F -44.1 °F -20.2 °F 84% 30.24 in 10.0 mi North 20.7 mph - N/A   Overcast
5:15 AM -16.6 °F -44.8 °F -22.0 °F 76% 30.24 in 8.0 mi North 21.9 mph - N/A   Overcast
5:55 AM -16.6 °F -42.9 °F -22.0 °F 76% 30.25 in 5.0 mi North 18.4 mph 23.0 mph N/A   Haze
6:15 AM -16.6 °F -39.8 °F -22.0 °F 76% 30.27 in 5.0 mi North 13.8 mph - N/A   Haze
6:35 AM -16.6 °F -39.8 °F -22.0 °F 76% 30.28 in 5.0 mi NNW 13.8 mph - N/A   Haze
6:55 AM -18.4 °F -42.1 °F -23.8 °F 76% 30.29 in 5.0 mi NNW 13.8 mph - N/A   Haze
7:15 AM -18.4 °F -42.9 °F -23.8 °F 76% 30.29 in 7.0 mi NNW 15.0 mph - N/A   Overcast
7:35 AM -18.4 °F -43.7 °F -25.6 °F 70% 30.30 in 3.0 mi NNW 16.1 mph - N/A   Haze
7:55 AM -18.4 °F -42.9 °F -25.6 °F 70% 30.31 in 3.0 mi North 15.0 mph - N/A   Haze
8:15 AM -18.4 °F -42.9 °F -25.6 °F 70% 30.32 in 4.0 mi NNW 15.0 mph - N/A   Haze
8:35 AM -18.4 °F -41.2 °F -25.6 °F 70% 30.32 in 5.0 mi North 12.7 mph - N/A   Haze
8:55 AM -18.4 °F -42.1 °F -23.8 °F 76% 30.33 in 10.0 mi North 13.8 mph - N/A   Mostly Cloudy
9:35 AM -16.6 °F -39.8 °F -23.8 °F 70% 30.34 in 10.0 mi North 13.8 mph - N/A   Clear
9:55 AM -16.6 °F -42.1 °F -22.0 °F 76% 30.34 in 7.0 mi North 17.3 mph - N/A   Clear
10:15 AM -13.0 °F -37.5 °F -20.2 °F 70% 30.35 in 6.0 mi North 17.3 mph - N/A   Haze
10:35 AM -13.0 °F -38.8 °F -20.2 °F 70% 30.35 in 5.0 mi North 19.6 mph - N/A   Haze
10:55 AM -11.2 °F -32.9 °F -18.4 °F 70% 30.35 in 10.0 mi North 13.8 mph - N/A   Clear
11:15 AM -9.4 °F -29.8 °F -16.6 °F 71% 30.36 in 10.0 mi North 12.7 mph - N/A   Clear
11:35 AM -9.4 °F -32.1 °F -16.6 °F 71% 30.36 in 10.0 mi NNE 16.1 mph - N/A   Clear
11:55 AM -7.6 °F -29.1 °F -14.8 °F 71% 30.37 in 10.0 mi NNE 15.0 mph - N/A   Clear
12:15 PM -7.6 °F -29.1 °F -13.0 °F 77% 30.37 in 10.0 mi North 15.0 mph - N/A   Clear
12:35 PM -5.8 °F -24.4 °F -13.0 °F 71% 30.37 in 10.0 mi North 11.5 mph - N/A   Clear
12:55 PM -4.0 °F -25.2 °F -13.0 °F 65% 30.37 in 10.0 mi North 16.1 mph - N/A   Clear
1:15 PM -4.0 °F -24.5 °F -11.2 °F 71% 30.36 in 10.0 mi North 15.0 mph - N/A   Clear
1:35 PM -4.0 °F -25.2 °F -11.2 °F 71% 30.35 in 10.0 mi NNE 16.1 mph - N/A   Clear
1:55 PM -4.0 °F -23.7 °F -11.2 °F 71% 30.35 in 10.0 mi North 13.8 mph - N/A   Clear
2:15 PM -2.2 °F -20.7 °F -11.2 °F 66% 30.36 in 10.0 mi North 12.7 mph - N/A   Clear
2:35 PM -2.2 °F -22.2 °F -11.2 °F 66% 30.35 in 10.0 mi North 15.0 mph - N/A   Clear
3:15 PM -2.2 °F -18.0 °F -9.4 °F 71% 30.37 in 10.0 mi North 9.2 mph - N/A   Clear
3:35 PM -2.2 °F -20.7 °F -11.2 °F 66% 30.37 in 10.0 mi North 12.7 mph - N/A   Clear
3:55 PM -2.2 °F -18.9 °F - N/A% 30.37 in 10.0 mi North 10.4 mph - N/A   Clear
4:15 PM -2.2 °F -18.9 °F -13.0 °F 60% 30.36 in 10.0 mi North 10.4 mph - N/A   Clear
4:35 PM -2.2 °F -18.0 °F -13.0 °F 60% 30.37 in 10.0 mi North 9.2 mph - N/A   Clear
4:55 PM -4.0 °F -17.8 °F -14.8 °F 60% 30.37 in 10.0 mi North 6.9 mph - N/A   Clear
5:15 PM -4.0 °F -22.1 °F -14.8 °F 60% 30.37 in 10.0 mi NNE 11.5 mph - N/A   Clear
6:35 PM -9.4 °F -24.3 °F -20.2 °F 59% 30.38 in 10.0 mi NE 6.9 mph - N/A   Clear
6:55 PM -11.2 °F -26.4 °F -20.2 °F 64% 30.39 in 10.0 mi NNE 6.9 mph - N/A   Clear
7:15 PM -9.4 °F -27.9 °F -20.2 °F 59% 30.38 in 10.0 mi NE 10.4 mph - N/A   Clear
7:35 PM -11.2 °F -24.8 °F -20.2 °F 64% 30.39 in 10.0 mi NNE 5.8 mph - N/A   Clear
7:55 PM -13.0 °F -30.0 °F -22.0 °F 64% 30.39 in 10.0 mi NNE 8.1 mph - N/A   Clear
8:15 PM -13.0 °F -28.6 °F -22.0 °F 64% 30.40 in 10.0 mi NNE 6.9 mph - N/A   Clear
8:35 PM -13.0 °F -30.0 °F -20.2 °F 70% 30.39 in 10.0 mi NNE 8.1 mph - N/A   Clear
8:55 PM -13.0 °F -33.4 °F -20.2 °F 70% 30.40 in 10.0 mi NE 11.5 mph - N/A   Clear
9:15 PM -13.0 °F -33.4 °F -20.2 °F 70% 30.39 in 10.0 mi ENE 11.5 mph - N/A   Clear
9:35 PM -13.0 °F -31.3 °F -20.2 °F 70% 30.40 in 10.0 mi ENE 9.2 mph - N/A   Clear
9:55 PM -13.0 °F -33.4 °F -20.2 °F 70% 30.39 in 10.0 mi ENE 11.5 mph - N/A   Clear
10:15 PM -13.0 °F -33.4 °F -20.2 °F 70% 30.39 in 10.0 mi ENE 11.5 mph - N/A   Clear
10:35 PM -13.0 °F -31.3 °F -20.2 °F 70% 30.40 in 10.0 mi ENE 9.2 mph - N/A   Clear
10:55 PM -13.0 °F -34.3 °F -20.2 °F 70% 30.39 in 10.0 mi ENE 12.7 mph - N/A   Clear
11:15 PM -13.0 °F -35.2 °F -20.2 °F 70% 30.40 in 10.0 mi ENE 13.8 mph - N/A   Clear
11:35 PM -11.2 °F -32.1 °F -20.2 °F 64% 30.39 in 10.0 mi ENE 12.7 mph - N/A   Clear
11:55 PM -11.2 °F -27.8 °F -20.2 °F 64% 30.40 in 10.0 mi East 8.1 mph - N/A   Clear